Time;durP1;ratioP1;P1;durP2;ratioP2;P2;SDS_P1;SDS_P2;PMS_P1;PMS_P2;Temp;Humidity;BMP_temperature;BMP_pressure;BME280_temperature;BME280_humidity;BME280_pressure;Samples;Min_cycle;Max_cycle;Signal;HPM_P1;HPM_P2
2022/06/24 00:00:02;;;;;;;0.28;0.10;;;18.40;81.30;;;;;;5113535;28;20128;-74
2022/06/24 00:02:28;;;;;;;0.00;0.00;;;18.10;75.60;;;;;;5114100;28;20046;-74
2022/06/24 00:04:55;;;;;;;0.00;0.00;;;18.00;90.80;;;;;;5113644;28;20374;-74
2022/06/24 00:07:21;;;;;;;0.20;0.20;;;17.90;99.90;;;;;;5113540;28;20044;-74
2022/06/24 00:09:47;;;;;;;0.28;0.20;;;17.90;99.90;;;;;;5114084;28;20040;-74
2022/06/24 00:12:19;;;;;;;1.80;0.28;;;17.70;99.90;;;;;;5113576;28;20070;-74
2022/06/24 00:14:55;;;;;;;0.00;0.00;;;17.50;99.90;;;;;;5113363;28;20043;-74
2022/06/24 00:17:21;;;;;;;0.00;0.00;;;17.30;99.90;;;;;;5113568;28;20047;-75
2022/06/24 00:19:57;;;;;;;0.20;0.20;;;17.10;99.90;;;;;;5113663;28;20046;-74
2022/06/24 00:22:24;;;;;;;0.38;0.13;;;17.00;99.90;;;;;;5113369;28;20052;-74
2022/06/24 00:25:06;;;;;;;0.10;0.10;;;16.90;99.90;;;;;;5113036;28;20059;-73
2022/06/24 00:27:32;;;;;;;0.57;0.28;;;16.90;99.90;;;;;;5113184;28;20043;-74
2022/06/24 00:29:57;;;;;;;0.22;0.15;;;16.90;99.90;;;;;;5113706;28;20388;-74
2022/06/24 00:32:31;;;;;;;0.00;0.00;;;17.30;99.90;;;;;;5113645;28;20088;-74
2022/06/24 00:35:05;;;;;;;0.35;0.20;;;16.90;99.90;;;;;;5113185;28;20408;-73
2022/06/24 00:37:33;;;;;;;0.28;0.25;;;16.80;99.90;;;;;;5112988;28;20039;-75
2022/06/24 00:40:09;;;;;;;0.22;0.22;;;16.80;99.90;;;;;;5113388;28;20485;-74
2022/06/24 00:42:38;;;;;;;0.65;0.40;;;16.60;99.90;;;;;;5113436;28;20478;-74
2022/06/24 00:45:26;;;;;;;0.10;0.10;;;16.50;99.90;;;;;;5113209;28;20113;-74
2022/06/24 00:47:54;;;;;;;0.00;0.00;;;17.10;99.90;;;;;;5113020;28;20161;-73
2022/06/24 00:50:31;;;;;;;1.02;0.47;;;16.30;99.90;;;;;;5113135;28;20378;-74
2022/06/24 00:52:59;;;;;;;0.13;0.13;;;16.20;99.90;;;;;;5113486;28;20413;-74
2022/06/24 00:55:36;;;;;;;0.75;0.28;;;16.10;99.90;;;;;;5113027;28;20048;-74
2022/06/24 00:58:03;;;;;;;0.00;0.00;;;16.10;99.90;;;;;;5112857;28;20056;-74
2022/06/24 01:00:32;;;;;;;0.00;0.00;;;16.10;99.90;;;;;;5113336;28;20109;-74
2022/06/24 01:03:00;;;;;;;0.10;0.10;;;16.10;99.90;;;;;;5112954;28;20222;-74
2022/06/24 01:05:26;;;;;;;1.02;0.73;;;16.20;99.90;;;;;;5112988;28;20039;-74
2022/06/24 01:07:52;;;;;;;0.35;0.32;;;16.10;99.90;;;;;;5113088;28;20126;-73
2022/06/24 01:10:17;;;;;;;0.47;0.47;;;16.10;99.90;;;;;;5096375;28;20068;-74
2022/06/24 01:12:43;;;;;;;0.57;0.45;;;16.90;99.90;;;;;;5116805;28;20560;-74
2022/06/24 01:15:09;;;;;;;0.30;0.30;;;16.00;99.90;;;;;;5116949;28;20539;-74
2022/06/24 01:17:37;;;;;;;0.43;0.35;;;15.90;99.90;;;;;;5116894;28;20409;-74
2022/06/24 01:20:04;;;;;;;0.05;0.05;;;15.80;99.90;;;;;;5116669;28;20043;-74
2022/06/24 01:22:29;;;;;;;1.02;0.65;;;15.70;99.90;;;;;;5117167;28;20136;-74
2022/06/24 01:24:55;;;;;;;0.00;0.00;;;15.70;99.90;;;;;;5116894;28;20071;-74
2022/06/24 01:27:21;;;;;;;0.00;0.00;;;15.60;99.90;;;;;;5116630;28;20115;-74
2022/06/24 01:29:46;;;;;;;0.28;0.28;;;15.50;99.90;;;;;;5116429;28;20043;-74
2022/06/24 01:32:12;;;;;;;0.35;0.15;;;15.60;99.90;;;;;;5098002;28;20070;-74
2022/06/24 01:34:38;;;;;;;0.00;0.00;;;15.40;99.90;;;;;;5116353;28;20075;-74
2022/06/24 01:37:04;;;;;;;0.20;0.13;;;15.40;99.90;;;;;;5116151;28;20052;-75
2022/06/24 01:39:30;;;;;;;0.10;0.10;;;15.40;99.90;;;;;;5115953;28;20490;-74
2022/06/24 01:41:56;;;;;;;0.00;0.00;;;15.30;99.90;;;;;;5116099;28;20042;-75
2022/06/24 01:44:22;;;;;;;0.17;0.10;;;15.30;99.90;;;;;;5115906;28;20048;-74
2022/06/24 01:46:48;;;;;;;1.00;0.20;;;15.20;99.90;;;;;;5115906;28;20477;-74
2022/06/24 01:49:14;;;;;;;0.08;0.03;;;15.20;99.90;;;;;;5115941;28;20138;-74
2022/06/24 01:51:42;;;;;;;0.00;0.00;;;15.20;99.90;;;;;;5116079;28;20510;-74
2022/06/24 01:54:09;;;;;;;0.00;0.00;;;15.20;99.90;;;;;;5116117;28;20043;-74
2022/06/24 01:56:53;;;;;;;0.20;0.17;;;15.20;99.90;;;;;;5115286;28;20051;-74
2022/06/24 01:59:19;;;;;;;0.20;0.20;;;15.20;99.90;;;;;;5115891;28;20450;-74
2022/06/24 02:01:45;;;;;;;0.00;0.00;;;15.20;99.90;;;;;;5115641;28;20054;-74
2022/06/24 02:04:12;;;;;;;0.30;0.20;;;15.20;99.90;;;;;;5115854;28;20051;-74
2022/06/24 02:06:38;;;;;;;0.10;0.00;;;15.20;99.90;;;;;;5115405;28;20055;-73
2022/06/24 02:09:05;;;;;;;0.00;0.00;;;15.20;99.90;;;;;;5115613;28;20032;-73
2022/06/24 02:14:15;;;;;;;0.10;0.10;;;15.20;99.90;;;;;;5115731;28;20091;-74
2022/06/24 02:16:41;;;;;;;0.03;0.03;;;15.20;99.90;;;;;;5115400;28;20044;-74
2022/06/24 02:19:07;;;;;;;0.25;0.17;;;15.20;99.90;;;;;;5115188;28;20047;-74
2022/06/24 02:21:35;;;;;;;0.10;0.10;;;15.20;99.90;;;;;;5115492;28;20048;-74
2022/06/24 02:24:01;;;;;;;0.03;0.03;;;15.10;99.90;;;;;;5115043;28;20039;-75
2022/06/24 02:26:27;;;;;;;0.10;0.10;;;15.10;99.90;;;;;;5115479;28;20118;-74
2022/06/24 02:28:53;;;;;;;0.00;0.00;;;15.00;99.90;;;;;;5115520;28;20067;-74
2022/06/24 02:31:19;;;;;;;0.25;0.20;;;15.00;99.90;;;;;;5115286;28;20039;-74
2022/06/24 02:33:46;;;;;;;0.13;0.13;;;15.10;99.90;;;;;;5115511;28;20043;-74
2022/06/24 02:36:13;;;;;;;0.10;0.10;;;15.30;99.90;;;;;;5114734;28;20075;-74
2022/06/24 02:38:38;;;;;;;0.90;0.80;;;15.40;99.90;;;;;;5114752;28;20046;-73
2022/06/24 02:41:04;;;;;;;0.00;0.00;;;15.50;99.90;;;;;;5115057;28;20114;-74
2022/06/24 02:43:35;;;;;;;0.20;0.20;;;15.50;99.90;;;;;;5115465;28;20481;-74
2022/06/24 02:46:12;;;;;;;0.10;0.10;;;15.50;99.90;;;;;;5114798;28;20105;-74
2022/06/24 02:48:41;;;;;;;0.10;0.10;;;15.50;99.90;;;;;;5114960;28;20043;-74
2022/06/24 02:51:08;;;;;;;0.40;0.40;;;15.50;99.90;;;;;;5114783;28;20051;-75
2022/06/24 02:53:35;;;;;;;0.35;0.20;;;15.40;99.90;;;;;;5114737;28;20063;-74
2022/06/24 02:56:09;;;;;;;0.47;0.38;;;15.30;99.90;;;;;;5096334;28;20047;-75
2022/06/24 02:58:36;;;;;;;0.35;0.30;;;15.30;99.90;;;;;;5096177;28;20517;-74
2022/06/24 03:01:02;;;;;;;1.48;0.73;;;15.30;99.90;;;;;;5114542;28;20455;-74
2022/06/24 03:03:29;;;;;;;0.30;0.25;;;15.30;99.90;;;;;;5114591;28;20044;-74
2022/06/24 03:05:55;;;;;;;0.10;0.10;;;15.30;99.90;;;;;;5114066;28;20047;-74
2022/06/24 03:08:22;;;;;;;0.68;0.60;;;15.30;99.90;;;;;;5114811;28;20059;-74
2022/06/24 03:10:49;;;;;;;1.17;0.75;;;15.40;99.90;;;;;;5114447;28;20071;-74
2022/06/24 03:13:15;;;;;;;0.25;0.15;;;15.60;99.90;;;;;;5114408;28;20047;-74
2022/06/24 03:15:43;;;;;;;0.50;0.45;;;15.80;99.90;;;;;;5114091;28;20047;-73
2022/06/24 03:18:09;;;;;;;0.30;0.30;;;16.00;99.90;;;;;;5114454;28;20451;-74
2022/06/24 03:20:35;;;;;;;0.77;0.63;;;16.10;99.90;;;;;;5114313;28;20031;-74
2022/06/24 03:23:01;;;;;;;0.13;0.13;;;16.10;99.90;;;;;;5114280;28;20039;-74
2022/06/24 03:25:27;;;;;;;0.50;0.30;;;16.20;99.90;;;;;;5113747;28;20511;-74
2022/06/24 03:27:52;;;;;;;0.30;0.30;;;16.30;99.90;;;;;;5113659;28;20059;-74
2022/06/24 03:30:18;;;;;;;0.47;0.47;;;16.30;99.90;;;;;;5113860;28;20489;-74
2022/06/24 03:32:44;;;;;;;0.35;0.30;;;16.50;99.90;;;;;;5113636;28;20077;-74
2022/06/24 03:35:10;;;;;;;0.50;0.45;;;16.60;99.90;;;;;;5113959;28;20489;-73
2022/06/24 03:37:36;;;;;;;0.70;0.70;;;16.70;99.90;;;;;;5114051;28;20114;-74
2022/06/24 03:40:02;;;;;;;1.00;0.60;;;16.80;99.90;;;;;;5114289;28;20135;-74
2022/06/24 03:42:28;;;;;;;0.25;0.25;;;17.00;99.90;;;;;;5114316;28;20081;-74
2022/06/24 03:44:54;;;;;;;0.47;0.45;;;17.10;99.90;;;;;;5113507;28;20486;-73
2022/06/24 03:47:19;;;;;;;0.28;0.22;;;17.10;99.90;;;;;;5113089;28;20040;-75
2022/06/24 03:49:45;;;;;;;0.68;0.50;;;17.30;99.90;;;;;;5114048;28;20481;-74
2022/06/24 03:52:11;;;;;;;0.30;0.28;;;17.40;99.90;;;;;;5113848;28;20485;-75
2022/06/24 03:54:37;;;;;;;0.70;0.28;;;17.40;99.90;;;;;;5113680;28;20051;-74
2022/06/24 03:57:03;;;;;;;0.90;0.90;;;17.50;99.90;;;;;;5113216;28;20481;-74
2022/06/24 03:59:29;;;;;;;0.13;0.13;;;17.50;99.90;;;;;;5113584;28;20035;-74
2022/06/24 04:01:55;;;;;;;0.15;0.15;;;17.50;99.90;;;;;;5113566;28;20551;-74
2022/06/24 04:04:20;;;;;;;2.40;1.10;;;18.70;99.90;;;;;;5113873;28;20032;-75
2022/06/24 04:06:46;;;;;;;0.20;0.20;;;17.50;99.90;;;;;;5113382;28;20050;-74
2022/06/24 04:09:13;;;;;;;1.38;0.80;;;17.60;99.90;;;;;;5113739;28;20517;-74
2022/06/24 04:11:38;;;;;;;0.28;0.28;;;17.70;99.90;;;;;;5113704;28;20075;-74
2022/06/24 04:14:04;;;;;;;0.28;0.25;;;17.70;99.90;;;;;;5113707;28;20082;-74
2022/06/24 04:16:30;;;;;;;0.35;0.35;;;17.80;99.90;;;;;;5113208;28;20071;-74
2022/06/24 04:18:56;;;;;;;1.40;0.68;;;17.80;99.90;;;;;;5113729;28;20110;-74
2022/06/24 04:21:22;;;;;;;1.85;0.90;;;17.90;99.90;;;;;;5095701;28;20040;-74
2022/06/24 04:23:49;;;;;;;0.95;0.50;;;18.00;99.90;;;;;;5113657;28;20039;-74
2022/06/24 04:26:16;;;;;;;0.40;0.40;;;18.00;99.90;;;;;;5113475;28;20432;-74
2022/06/24 04:28:41;;;;;;;0.32;0.32;;;18.20;99.90;;;;;;5113315;28;20117;-74
2022/06/24 04:31:07;;;;;;;0.10;0.10;;;18.40;99.90;;;;;;5113089;28;20062;-74
2022/06/24 04:33:32;;;;;;;4.07;0.70;;;18.50;99.90;;;;;;5113484;28;20085;-74
2022/06/24 04:35:58;;;;;;;0.35;0.25;;;18.90;99.90;;;;;;5113433;28;20051;-74
2022/06/24 04:38:24;;;;;;;0.57;0.28;;;19.20;99.00;;;;;;5113713;28;20046;-74
2022/06/24 04:40:49;;;;;;;0.55;0.50;;;19.30;97.00;;;;;;5113355;28;20039;-74
2022/06/24 04:43:15;;;;;;;0.13;0.13;;;19.50;97.40;;;;;;5113359;28;20050;-74
2022/06/24 04:45:44;;;;;;;0.03;0.03;;;19.50;97.50;;;;;;5117213;28;20122;-75
2022/06/24 04:48:09;;;;;;;0.82;0.82;;;19.60;96.90;;;;;;5117237;28;20127;-74
2022/06/24 04:50:35;;;;;;;0.60;0.32;;;19.70;95.10;;;;;;5116504;28;20118;-74
2022/06/24 04:53:00;;;;;;;1.13;0.25;;;19.60;94.80;;;;;;5116487;28;20039;-74
2022/06/24 04:55:26;;;;;;;0.10;0.10;;;19.70;96.40;;;;;;5116270;28;20043;-75
2022/06/24 04:57:52;;;;;;;0.45;0.40;;;19.70;94.10;;;;;;5115554;28;20044;-74
2022/06/24 05:00:18;;;;;;;0.10;0.10;;;20.00;93.40;;;;;;5115942;28;20074;-75
2022/06/24 05:02:43;;;;;;;0.30;0.30;;;20.10;93.00;;;;;;5115901;28;20118;-74
2022/06/24 05:05:10;;;;;;;0.00;0.00;;;20.30;91.70;;;;;;5115988;28;20553;-74
2022/06/24 05:07:36;;;;;;;0.22;0.20;;;20.40;91.10;;;;;;5115442;28;20047;-74
2022/06/24 05:10:02;;;;;;;4.38;0.50;;;20.70;92.00;;;;;;5116132;28;20036;-74
2022/06/24 05:12:28;;;;;;;0.85;0.30;;;20.70;91.20;;;;;;5113044;28;20453;-75
2022/06/24 05:14:53;;;;;;;0.13;0.10;;;20.80;91.90;;;;;;5112480;28;20082;-75
2022/06/24 05:17:19;;;;;;;0.57;0.47;;;21.10;91.10;;;;;;5112525;28;20106;-75
2022/06/24 05:19:44;;;;;;;2.63;0.90;;;21.50;86.00;;;;;;5112548;28;20550;-74
2022/06/24 05:22:10;;;;;;;0.10;0.10;;;21.80;81.00;;;;;;5112433;28;20115;-75
2022/06/24 05:24:36;;;;;;;0.10;0.10;;;22.50;75.60;;;;;;5112470;28;20050;-75
2022/06/24 05:27:02;;;;;;;0.13;0.10;;;23.10;64.10;;;;;;5112790;28;20042;-75
2022/06/24 05:29:28;;;;;;;0.22;0.20;;;23.50;54.10;;;;;;5116076;28;20477;-75
2022/06/24 05:31:53;;;;;;;0.30;0.30;;;23.60;55.60;;;;;;5115281;28;20036;-76
2022/06/24 05:34:19;;;;;;;1.08;0.65;;;23.90;56.20;;;;;;5115887;28;20512;-75
2022/06/24 05:36:44;;;;;;;1.02;0.47;;;24.00;47.10;;;;;;5115729;28;20413;-75
2022/06/24 05:39:10;;;;;;;0.50;0.50;;;24.10;42.70;;;;;;5116096;28;20388;-75
2022/06/24 05:41:39;;;;;;;0.38;0.38;;;24.60;38.80;;;;;;5115594;28;20050;-75
2022/06/24 05:44:05;;;;;;;1.20;0.77;;;24.40;39.30;;;;;;5115750;28;20048;-75
2022/06/24 05:46:30;;;;;;;0.08;0.08;;;24.00;46.20;;;;;;5115705;28;20481;-75
2022/06/24 05:48:57;;;;;;;0.40;0.32;;;23.60;57.00;;;;;;5115950;28;20050;-75
2022/06/24 05:51:22;;;;;;;0.47;0.38;;;22.70;68.30;;;;;;5115718;28;20424;-75
2022/06/24 05:56:32;;;;;;;0.20;0.17;;;22.10;82.60;;;;;;5114649;28;20062;-75
2022/06/24 05:58:59;;;;;;;0.25;0.17;;;21.70;88.40;;;;;;5115807;28;20047;-75
2022/06/24 06:01:25;;;;;;;0.50;0.40;;;21.60;91.60;;;;;;5097486;28;20047;-75
2022/06/24 06:03:51;;;;;;;2.35;0.85;;;21.40;97.90;;;;;;5115520;28;20134;-76
2022/06/24 06:06:17;;;;;;;4.95;1.63;;;21.10;99.90;;;;;;5115657;28;20086;-73
2022/06/24 06:08:43;;;;;;;2.65;0.70;;;20.30;99.90;;;;;;5115862;28;20134;-74
2022/06/24 06:11:18;;;;;;;5.30;1.15;;;19.20;99.90;;;;;;5115673;28;20044;-73
2022/06/24 06:13:45;;;;;;;0.75;0.75;;;18.50;99.90;;;;;;5097552;28;20074;-73
2022/06/24 06:16:11;;;;;;;1.13;1.02;;;18.10;99.90;;;;;;5115543;28;20048;-73
2022/06/24 06:18:37;;;;;;;1.13;0.98;;;18.00;99.90;;;;;;5115555;28;20092;-73
2022/06/24 06:21:04;;;;;;;0.30;0.30;;;18.20;99.90;;;;;;5115421;28;20039;-73
2022/06/24 06:23:30;;;;;;;5.65;0.32;;;18.10;99.90;;;;;;5115394;28;20048;-73
2022/06/24 06:25:56;;;;;;;0.52;0.47;;;18.40;99.90;;;;;;5115435;28;20066;-73
2022/06/24 06:28:22;;;;;;;1.95;1.13;;;18.50;99.90;;;;;;5115740;28;20054;-74
2022/06/24 06:30:47;;;;;;;0.80;0.60;;;18.60;99.90;;;;;;5115205;28;20036;-74
2022/06/24 06:33:14;;;;;;;0.73;0.63;;;18.60;99.90;;;;;;5115328;28;20047;-74
2022/06/24 06:35:39;;;;;;;2.50;1.15;;;18.80;99.90;;;;;;5114920;28;20081;-75
2022/06/24 06:38:05;;;;;;;3.25;0.68;;;18.80;99.90;;;;;;5115129;28;20412;-75
2022/06/24 06:40:34;;;;;;;1.63;1.10;;;19.00;99.90;;;;;;5115213;28;20051;-75
2022/06/24 06:43:00;;;;;;;0.90;0.68;;;19.10;99.90;;;;;;5115273;28;20086;-75
2022/06/24 06:45:29;;;;;;;1.65;1.27;;;19.00;99.90;;;;;;5114890;28;20036;-75
2022/06/24 06:47:55;;;;;;;1.60;1.27;;;19.20;99.90;;;;;;5114927;28;20431;-75
2022/06/24 06:50:20;;;;;;;3.20;1.95;;;19.30;99.90;;;;;;5114609;28;20093;-75
2022/06/24 06:52:46;;;;;;;1.50;0.88;;;19.30;99.90;;;;;;5114993;28;20374;-76
2022/06/24 06:55:12;;;;;;;1.70;0.85;;;19.40;99.90;;;;;;5111395;28;20106;-76
2022/06/24 06:57:37;;;;;;;0.68;0.60;;;19.30;99.90;;;;;;5108629;28;20050;-76
2022/06/24 07:00:05;;;;;;;0.77;0.70;;;19.10;99.90;;;;;;5091945;28;20121;-76
2022/06/24 07:02:30;;;;;;;1.08;0.80;;;18.90;99.90;;;;;;5102275;28;20068;-76
2022/06/24 07:04:56;;;;;;;1.30;1.20;;;18.80;99.90;;;;;;5109049;28;20085;-76
2022/06/24 07:07:21;;;;;;;0.28;0.22;;;18.90;99.90;;;;;;5088591;28;20048;-76
2022/06/24 07:09:51;;;;;;;0.77;0.38;;;18.90;99.90;;;;;;5094125;28;20043;-76
2022/06/24 07:12:26;;;;;;;0.28;0.20;;;18.90;99.90;;;;;;5091522;28;20089;-75
2022/06/24 07:14:52;;;;;;;1.75;0.40;;;18.90;99.90;;;;;;5108828;28;20490;-75
2022/06/24 07:17:19;;;;;;;0.43;0.43;;;18.80;99.90;;;;;;5109054;28;20045;-75
2022/06/24 07:19:45;;;;;;;1.20;0.82;;;18.80;99.90;;;;;;5099142;28;20440;-75
2022/06/24 07:22:11;;;;;;;0.32;0.32;;;18.80;99.90;;;;;;5088743;28;20040;-75
2022/06/24 07:24:37;;;;;;;0.85;0.60;;;18.80;99.90;;;;;;5097088;28;20058;-76
2022/06/24 07:27:07;;;;;;;2.20;1.05;;;18.80;99.90;;;;;;5098378;28;20103;-76
2022/06/24 07:29:34;;;;;;;0.40;0.40;;;18.80;99.90;;;;;;5070313;28;20493;-76
2022/06/24 07:32:01;;;;;;;2.25;0.45;;;18.80;99.90;;;;;;5103544;28;20451;-76
2022/06/24 07:34:27;;;;;;;0.75;0.68;;;19.60;99.90;;;;;;5108117;28;20118;-76
2022/06/24 07:36:53;;;;;;;1.02;0.65;;;18.90;99.90;;;;;;5090531;28;20123;-76
2022/06/24 07:39:19;;;;;;;0.75;0.52;;;19.00;99.90;;;;;;5108810;28;20074;-76
2022/06/24 07:41:47;;;;;;;0.47;0.45;;;19.00;99.90;;;;;;5108797;28;20521;-76
2022/06/24 07:44:13;;;;;;;1.20;1.00;;;19.10;99.90;;;;;;5108528;28;20061;-76
2022/06/24 07:46:38;;;;;;;1.10;0.90;;;19.10;99.90;;;;;;5108723;28;20044;-76
2022/06/24 07:49:04;;;;;;;0.75;0.65;;;19.00;99.90;;;;;;5108365;28;20047;-76
2022/06/24 07:51:29;;;;;;;0.65;0.57;;;19.00;99.90;;;;;;5108393;28;20078;-76
2022/06/24 07:53:55;;;;;;;0.10;0.10;;;18.90;99.90;;;;;;5108901;28;20063;-76
2022/06/24 07:59:06;;;;;;;0.75;0.55;;;19.00;99.90;;;;;;5108144;28;20513;-76
2022/06/24 08:01:32;;;;;;;0.20;0.20;;;19.00;99.90;;;;;;5108330;28;20119;-76
2022/06/24 08:03:58;;;;;;;0.30;0.30;;;19.10;99.90;;;;;;5108592;28;20039;-76
2022/06/24 08:06:24;;;;;;;1.08;0.68;;;19.50;99.90;;;;;;5095505;28;20048;-76
2022/06/24 08:08:50;;;;;;;0.47;0.35;;;19.20;99.90;;;;;;5088181;28;20440;-76
2022/06/24 08:11:15;;;;;;;0.30;0.28;;;19.40;99.90;;;;;;5088033;28;20124;-76
2022/06/24 08:13:41;;;;;;;0.73;0.50;;;19.40;99.90;;;;;;5089130;28;20098;-76
2022/06/24 08:16:07;;;;;;;1.17;0.88;;;19.50;99.90;;;;;;5107238;28;20142;-76
2022/06/24 08:18:33;;;;;;;0.13;0.13;;;19.50;99.90;;;;;;5108645;28;20040;-76
2022/06/24 08:20:59;;;;;;;1.10;0.50;;;19.70;99.90;;;;;;5112539;28;20035;-76
2022/06/24 08:23:24;;;;;;;0.28;0.25;;;19.60;99.90;;;;;;5112750;28;20093;-76
2022/06/24 08:25:50;;;;;;;0.38;0.30;;;19.60;99.90;;;;;;5112593;28;20116;-76
2022/06/24 08:28:15;;;;;;;0.38;0.35;;;19.70;99.90;;;;;;5110151;28;20561;-76
2022/06/24 08:30:41;;;;;;;1.08;0.55;;;19.80;99.90;;;;;;5112456;28;20054;-76
2022/06/24 08:33:07;;;;;;;0.52;0.50;;;19.90;99.90;;;;;;5110784;28;20475;-76
2022/06/24 08:35:32;;;;;;;0.30;0.30;;;20.00;99.90;;;;;;5091748;28;20059;-76
2022/06/24 08:37:58;;;;;;;3.72;0.38;;;20.10;99.90;;;;;;5102572;28;20047;-76
2022/06/24 08:40:28;;;;;;;0.73;0.73;;;20.10;99.90;;;;;;5111643;28;20489;-75
2022/06/24 08:42:58;;;;;;;0.28;0.28;;;20.40;99.90;;;;;;5112178;28;20054;-75
2022/06/24 08:45:25;;;;;;;0.60;0.25;;;20.50;99.90;;;;;;5102776;28;20402;-75
2022/06/24 08:47:51;;;;;;;1.05;0.77;;;20.60;99.90;;;;;;5092825;28;20043;-76
2022/06/24 08:50:17;;;;;;;0.20;0.17;;;20.50;99.90;;;;;;5109386;28;20081;-75
2022/06/24 08:52:51;;;;;;;0.20;0.20;;;20.50;99.90;;;;;;5113112;28;20055;-76
2022/06/24 08:55:50;;;;;;;0.40;0.40;;;20.30;99.90;;;;;;5107424;28;20056;-76
2022/06/24 08:58:13;;;;;;;0.10;0.10;;;20.10;99.90;;;;;;5090881;28;20813;-76
2022/06/24 09:00:40;;;;;;;3.63;0.30;;;20.00;99.90;;;;;;5095932;28;20047;-76
2022/06/24 09:03:06;;;;;;;0.28;0.28;;;19.90;99.90;;;;;;5111778;28;20043;-76
2022/06/24 09:05:32;;;;;;;0.85;0.68;;;19.90;99.90;;;;;;5111162;28;20382;-76
2022/06/24 09:08:06;;;;;;;0.65;0.55;;;19.80;99.90;;;;;;5111553;28;20078;-76
2022/06/24 09:10:32;;;;;;;0.98;0.55;;;19.80;99.90;;;;;;5101484;28;20525;-76
2022/06/24 09:12:58;;;;;;;0.10;0.10;;;19.80;99.90;;;;;;5097901;28;20108;-77
2022/06/24 09:15:24;;;;;;;3.20;0.68;;;19.90;99.90;;;;;;5111445;28;20082;-76
2022/06/24 09:17:50;;;;;;;0.00;0.00;;;19.80;99.90;;;;;;5093176;28;20642;-76
2022/06/24 09:20:21;;;;;;;0.35;0.35;;;19.80;99.90;;;;;;5111332;28;20039;-76
2022/06/24 09:22:47;;;;;;;1.10;0.52;;;19.90;99.90;;;;;;5111322;28;20385;-76
2022/06/24 09:25:14;;;;;;;0.25;0.22;;;20.00;99.90;;;;;;5111446;28;20040;-76
2022/06/24 09:27:51;;;;;;;0.65;0.55;;;20.10;99.90;;;;;;5138650;22;20074;-91
2022/06/24 09:30:37;;;;;;;0.20;0.20;;;19.90;99.90;;;;;;5125027;28;20050;-91
2022/06/24 09:33:14;;;;;;;0.75;0.45;;;19.80;99.90;;;;;;5108436;28;20118;-91
2022/06/24 09:35:41;;;;;;;0.20;0.20;;;19.80;99.90;;;;;;5106568;28;20054;-91
2022/06/24 09:38:07;;;;;;;0.50;0.40;;;19.90;99.90;;;;;;5109350;28;20130;-91
2022/06/24 09:40:33;;;;;;;1.70;0.77;;;19.50;99.90;;;;;;5090197;28;20075;-92
2022/06/24 09:43:05;;;;;;;0.22;0.17;;;19.60;99.90;;;;;;5106992;28;20135;-91
2022/06/24 09:45:44;;;;;;;2.03;0.75;;;19.40;99.90;;;;;;5126695;28;20569;-91
2022/06/24 09:48:11;;;;;;;0.03;0.03;;;19.40;99.90;;;;;;5109772;28;20038;-91
2022/06/24 09:50:40;;;;;;;0.47;0.30;;;20.30;99.90;;;;;;5107526;28;20513;-91
2022/06/24 09:53:08;;;;;;;0.75;0.47;;;19.70;99.90;;;;;;5127668;28;20047;-91
2022/06/24 09:55:34;;;;;;;0.38;0.38;;;20.40;99.90;;;;;;5112983;28;20088;-91
2022/06/24 09:58:05;;;;;;;1.33;0.75;;;20.70;99.90;;;;;;5113601;28;20680;-91
2022/06/24 10:00:45;;;;;;;2.85;0.85;;;19.70;99.90;;;;;;5094220;28;20040;-91
2022/06/24 10:03:18;;;;;;;0.88;0.63;;;20.30;99.90;;;;;;5107993;28;20040;-91
2022/06/24 10:06:23;;;;;;;;;;;;;;;;;;;;;
2022/06/24 10:08:55;;;;;;;0.77;0.40;;;18.90;99.90;;;;;;5130690;28;20101;-91
2022/06/24 10:11:28;;;;;;;0.55;0.30;;;19.40;99.90;;;;;;5112029;28;20035;-91
2022/06/24 10:14:06;;;;;;;0.32;0.32;;;20.10;99.90;;;;;;5128974;28;20040;-91
2022/06/24 10:16:32;;;;;;;0.75;0.50;;;19.10;99.90;;;;;;5091106;28;20047;-91
2022/06/24 10:18:58;;;;;;;1.58;1.02;;;20.10;99.90;;;;;;5110139;28;20039;-91
2022/06/24 10:21:24;;;;;;;0.22;0.22;;;19.10;99.90;;;;;;5091838;28;20047;-90
2022/06/24 10:23:52;;;;;;;0.43;0.40;;;18.90;99.90;;;;;;5100645;28;20375;-91
2022/06/24 10:26:32;;;;;;;1.02;0.55;;;18.60;99.90;;;;;;5101337;28;20055;-91
2022/06/24 10:29:03;;;;;;;0.47;0.47;;;19.20;99.90;;;;;;5122558;28;20459;-91
2022/06/24 10:34:22;;;;;;;0.20;0.10;;;18.20;99.90;;;;;;5118257;27;20048;-91
2022/06/24 10:36:54;;;;;;;1.52;1.02;;;18.20;99.90;;;;;;5120181;28;20067;-91
2022/06/24 10:39:24;;;;;;;0.57;0.30;;;18.10;99.90;;;;;;5118090;28;20024;-92
2022/06/24 10:42:03;;;;;;;1.38;0.95;;;18.40;99.90;;;;;;5133745;28;20036;-91
2022/06/24 10:44:35;;;;;;;0.43;0.43;;;18.10;99.90;;;;;;5100007;28;20039;-89
2022/06/24 10:47:04;;;;;;;0.10;0.10;;;18.90;99.90;;;;;;5130643;28;20044;-89
2022/06/24 10:49:52;;;;;;;1.02;0.55;;;19.10;99.90;;;;;;5108066;28;20052;-88
2022/06/24 10:52:45;;;;;;;0.75;0.52;;;18.00;99.90;;;;;;5127455;28;20065;-88
2022/06/24 10:57:46;;;;;;;1.15;0.50;;;17.80;99.90;;;;;;5102058;28;20065;-89
2022/06/24 11:00:25;;;;;;;0.10;0.10;;;17.80;99.90;;;;;;5120713;28;20400;-89
2022/06/24 11:02:59;;;;;;;0.32;0.32;;;17.70;99.90;;;;;;5120449;28;20043;-88
2022/06/24 11:05:29;;;;;;;0.13;0.13;;;17.70;99.90;;;;;;5104810;28;20052;-89
2022/06/24 11:07:54;;;;;;;0.30;0.30;;;17.60;99.90;;;;;;5104401;28;20075;-89
2022/06/24 11:10:22;;;;;;;0.30;0.28;;;17.50;99.90;;;;;;5103321;28;20044;-88
2022/06/24 11:12:49;;;;;;;1.85;0.15;;;17.50;99.90;;;;;;5104172;28;20036;-88
2022/06/24 11:15:15;;;;;;;0.55;0.50;;;17.40;99.90;;;;;;5121570;28;20081;-89
2022/06/24 11:17:42;;;;;;;0.90;0.75;;;17.30;99.90;;;;;;5123516;28;20035;-88
2022/06/24 11:20:09;;;;;;;10.00;0.38;;;18.00;99.90;;;;;;5120293;28;20039;-88
2022/06/24 11:22:46;;;;;;;0.17;0.17;;;17.30;99.90;;;;;;5125298;28;20044;-88
2022/06/24 11:25:14;;;;;;;0.05;0.05;;;18.10;99.90;;;;;;5130550;28;20528;-88
2022/06/24 11:27:40;;;;;;;0.08;0.00;;;17.20;99.90;;;;;;5097122;28;20062;-89
2022/06/24 11:30:08;;;;;;;0.30;0.30;;;17.10;99.90;;;;;;5095408;28;20055;-89
2022/06/24 11:32:57;;;;;;;0.38;0.25;;;17.10;99.90;;;;;;5131805;28;20047;-89
2022/06/24 11:35:23;;;;;;;1.52;0.30;;;17.10;99.90;;;;;;5130624;28;20051;-88
2022/06/24 11:37:49;;;;;;;0.43;0.38;;;17.10;99.90;;;;;;5112690;28;20136;-88
2022/06/24 11:40:26;;;;;;;0.10;0.10;;;17.20;99.90;;;;;;5106931;28;20044;-88
2022/06/24 11:42:52;;;;;;;0.40;0.40;;;17.30;99.90;;;;;;5107491;28;20378;-88
2022/06/24 11:45:37;;;;;;;0.20;0.20;;;17.30;99.90;;;;;;5103686;28;20123;-87
2022/06/24 11:48:04;;;;;;;0.00;0.00;;;17.40;99.90;;;;;;5100794;28;20397;-87
2022/06/24 11:50:32;;;;;;;0.80;0.63;;;17.50;99.90;;;;;;5120523;28;20040;-88
2022/06/24 11:52:58;;;;;;;0.15;0.13;;;17.60;99.90;;;;;;5127513;28;20027;-88
2022/06/24 11:55:36;;;;;;;0.45;0.45;;;17.80;99.90;;;;;;5136485;28;20046;-87
2022/06/24 11:58:05;;;;;;;0.70;0.52;;;18.00;99.90;;;;;;5119359;28;20036;-88
2022/06/24 12:00:36;;;;;;;1.20;0.55;;;18.40;99.90;;;;;;5107300;28;20075;-88
2022/06/24 12:03:04;;;;;;;0.08;0.08;;;18.70;99.90;;;;;;5104036;28;20120;-88
2022/06/24 12:05:32;;;;;;;0.60;0.55;;;18.70;99.90;;;;;;5086391;28;20054;-88
2022/06/24 12:07:59;;;;;;;0.00;0.00;;;18.60;99.90;;;;;;5108758;28;20123;-88
2022/06/24 12:10:25;;;;;;;0.38;0.30;;;19.70;99.90;;;;;;5107646;28;20119;-87
2022/06/24 12:12:59;;;;;;;0.60;0.35;;;19.10;99.90;;;;;;5110604;28;20072;-88
2022/06/24 12:15:34;;;;;;;0.30;0.25;;;19.80;99.90;;;;;;5111358;28;20036;-88
2022/06/24 12:18:00;;;;;;;0.03;0.03;;;18.60;99.90;;;;;;5127355;28;20069;-88
2022/06/24 12:20:32;;;;;;;0.05;0.05;;;19.90;99.90;;;;;;5108026;28;20391;-87
2022/06/24 12:23:19;;;;;;;0.00;0.00;;;19.90;99.90;;;;;;5125288;28;20052;-89
2022/06/24 12:25:50;;;;;;;0.25;0.20;;;18.90;99.90;;;;;;5111303;28;20679;-88
2022/06/24 12:28:22;;;;;;;0.32;0.28;;;20.10;99.90;;;;;;5114561;28;20043;-89
2022/06/24 12:31:02;;;;;;;0.00;0.00;;;19.80;99.90;;;;;;5128062;28;20058;-89
2022/06/24 12:33:33;;;;;;;0.03;0.03;;;19.30;99.90;;;;;;5110595;28;20039;-89
2022/06/24 12:36:05;;;;;;;0.55;0.28;;;19.40;99.90;;;;;;5110047;28;20448;-89
2022/06/24 12:38:31;;;;;;;0.30;0.30;;;19.70;99.90;;;;;;5110151;28;20092;-89
2022/06/24 12:41:12;;;;;;;0.20;0.20;;;20.40;99.90;;;;;;5109360;28;20448;-89
2022/06/24 12:44:00;;;;;;;0.17;0.15;;;21.10;99.90;;;;;;5106036;28;20401;-89
2022/06/24 12:50:35;;;;;;;0.00;0.00;;;21.60;99.90;;;;;;5106696;28;20130;-89
2022/06/24 12:52:34;;;;;;;0.50;0.50;;;21.90;99.90;;;;;;5104891;28;20048;-89
2022/06/24 12:55:01;;;;;;;3.88;1.08;;;21.80;99.90;;;;;;5103029;28;20043;-89
2022/06/24 12:57:26;;;;;;;0.10;0.10;;;21.30;99.90;;;;;;5100353;28;20055;-88
2022/06/24 12:59:52;;;;;;;0.75;0.52;;;21.50;99.90;;;;;;5119447;28;20043;-88
2022/06/24 13:02:24;;;;;;;0.85;0.40;;;21.60;99.90;;;;;;5119887;28;20042;-88
2022/06/24 13:04:50;;;;;;;0.40;0.38;;;21.70;99.90;;;;;;5101695;28;20054;-88
2022/06/24 13:07:15;;;;;;;0.70;0.60;;;21.80;99.90;;;;;;5104351;28;20040;-88
2022/06/24 13:09:41;;;;;;;0.90;0.75;;;22.50;99.90;;;;;;5122192;28;20079;-88